Αρχική σελίδα
METAR-TAF:

METAR-TAF

Αεροδρόμια :

Διεθνές Αεροδρόμιο Νίκολα Τέσλα

Βελιγράδι, Σερβία

γεωγραφικό πλάτος: 44-49N, γεωγραφικό μήκος: 020-17E, υψόμετρο: 96 μ

Παρών καιρός

Η αναφορά έγινε 6 λεπτά πριν, στις 03:30 UTC
Άνεμος 5 kt από Ν/ΝΔ
Θερμοκρασία 19°C
Υγρασία 94%
Πίεση 1021 hPa
Ορατότητα: 4000 μ
Αχλής

METAR: LYBE 200330Z 21005KT 4000 BR NSC 19/18 Q1021 TEMPO 2000

Χρόνος: 05:36 (03:36 UTC)

Πρόγνωση Καιρού

Η αναφορά έγινε 4 ώρες και 36 λεπτά πριν, στις 23:00 UTC
Η πρόγνωση ισχύει από τις 20 στις 00 UTC έως τις 20 στις 24 UTC
Άνεμος 6 kt από ΝΔ
Ορατότητα 10 χλμ και άνω
Δεν υπάρχουν νέφη με βάση κάτω από τα 1500 μ. και δεν υπάρχουν νέφη σωρειτομελανίτες.
Προσωρινά
από 20 στις 02 UTC έως τις 20 στις 04 UTC
Ορατότητα: 3000 μ
Αχλής

TAF: LYBE 192300Z 2000/2024 22006KT CAVOK TX30/2014Z TN17/2003Z TEMPO 2002/2004 3000 BR

Μετεωρολογικές αναφορές και προγνώσεις για περισσότερα από 4000 αεροδρόμια (δελτία METAR και TAF).

Οι διαθέσιμοι σταθμοί απεικονίζονται στο χάρτη με κίτρινες και κόκκινες κουκκίδες.

Μετακινήστε το ποντίκι πάνω από τις κουκκίδες για να δείτε το όνομα του σταθμού.

Στη συνέχεια, κάντε κλικ για να δείτε τις μετεωρολογικές αναφορές και τις προγνώσεις καιρού.

Για να αλλάξετε το χάρτη: κάντε κλικ στα πράσινα κουμπιά με τον μαύρο σταυρό για να ζουμάρετε, στο πράσινο κουμπί με την παύλα για να αφαιρέσετε το ζουμ ή στα πράσινα βέλη για να αντιπαραβάλλετε χάρτες.


METAR-TAF: